Skip to main content.
Station Historical Data
 
Daily Summary for October 20, 2019 Units:  Both    English   Metric
« Previous Day
Next Day »
Daily Weekly Monthly Yearly Custom
  Current: High: Low: Average:
Temperature: 55.6 °F /  13.1 °C 55.6 °F /  13.1 °C 43.3 °F /  6.3 °C 47.5 °F /  8.6 °C
Dew Point: 50.4 °F /  10.2 °C 50.4 °F /  10.2 °C 37 °F /  2.8 °C 41.5 °F /  5.3 °C
Humidity: 83% 90% 72% 80%
Wind Speed: 11.1mph /  17.9km/h 13.1mph /  21.1km/h - 4.9mph /  7.9km/h
Wind Gust: 18.4mph /  29.6km/h 20.7mph /  33.3km/h - -
WindSouth - - SSE
Pressure: 29.7 in /  1004.2 hPa 29.8 in /  1007.9 hPa 29.7 in /  1004.2 hPa -
Precipitation: 0 in /  0.0 mm      
Historical Graphs
 
 
Tabular Data for October 20, 2019
Time Temperature Dew Point Pressure Wind Wind Speed Wind Gust Humidity Rainfall Rate (Hourly) solar Conditions
00:00 46 °F /  7.8 °C 37.8 °F /  3.2 °C 29.8in /  1007.8hPa SE 2.4mph /  3.9km/h 3.5mph /  5.6km/h 73% 0in /  0.0mm 0.00 W/m2 RA
00:05 46 °F /  7.8 °C 37.9 °F /  3.3 °C 29.8in /  1007.8hPa SSE 2.5mph /  4.0km/h 3.5mph /  5.6km/h 73% 0in /  0.0mm 0.00 W/m2 RA
00:10 46.2 °F /  7.9 °C 37.8 °F /  3.2 °C 29.8in /  1007.9hPa SSE 1.9mph /  3.1km/h 2.3mph /  3.7km/h 72% 0in /  0.0mm 0.00 W/m2 RA
00:15 46.4 °F /  8.0 °C 37.9 °F /  3.3 °C 29.8in /  1007.8hPa SSE 2.3mph /  3.7km/h 3.5mph /  5.6km/h 72% 0in /  0.0mm 0.00 W/m2 CLR
00:20 46.4 °F /  8.0 °C 37.9 °F /  3.3 °C 29.8in /  1007.8hPa SSE 2.4mph /  3.9km/h 3.5mph /  5.6km/h 72% 0in /  0.0mm 0.00 W/m2 CLR
00:25 46.4 °F /  8.0 °C 37.9 °F /  3.3 °C 29.8in /  1007.7hPa SSE 2.9mph /  4.7km/h 3.5mph /  5.6km/h 72% 0in /  0.0mm 0.00 W/m2 CLR
00:30 46.6 °F /  8.1 °C 37.9 °F /  3.3 °C 29.8in /  1007.6hPa SSE 2.7mph /  4.3km/h 4mph /  6.4km/h 72% 0in /  0.0mm 0.00 W/m2 CLR
00:35 46.6 °F /  8.1 °C 37.9 °F /  3.3 °C 29.8in /  1007.6hPa SSE 1.9mph /  3.1km/h 3.5mph /  5.6km/h 72% 0in /  0.0mm 0.00 W/m2 CLR
00:40 46.6 °F /  8.1 °C 38.1 °F /  3.4 °C 29.8in /  1007.5hPa SSE 2.5mph /  4.0km/h 3.5mph /  5.6km/h 72% 0in /  0.0mm 0.00 W/m2 CLR
00:45 46.6 °F /  8.1 °C 37.9 °F /  3.3 °C 29.8in /  1007.5hPa SSE 2.2mph /  3.5km/h 3.5mph /  5.6km/h 72% 0in /  0.0mm 0.00 W/m2 CLR
00:50 46.6 °F /  8.1 °C 37.9 °F /  3.3 °C 29.8in /  1007.5hPa SSE 2.3mph /  3.7km/h 3.5mph /  5.6km/h 72% 0in /  0.0mm 0.00 W/m2 CLR
00:55 46.2 °F /  7.9 °C 37.8 °F /  3.2 °C 29.8in /  1007.5hPa SE 2.5mph /  4.0km/h 3.5mph /  5.6km/h 72% 0in /  0.0mm 0.00 W/m2 CLR
01:00 46 °F /  7.8 °C 37.8 °F /  3.2 °C 29.8in /  1007.5hPa SSE 2.5mph /  4.0km/h 3.5mph /  5.6km/h 73% 0in /  0.0mm 0.00 W/m2 CLR
01:05 45.9 °F /  7.7 °C 37.6 °F /  3.1 °C 29.8in /  1007.4hPa SSE 3mph /  4.8km/h 4mph /  6.4km/h 73% 0in /  0.0mm 0.00 W/m2 CLR
01:10 45.7 °F /  7.6 °C 37.8 °F /  3.2 °C 29.8in /  1007.5hPa SSE 2.1mph /  3.4km/h 3.5mph /  5.6km/h 74% 0in /  0.0mm 0.00 W/m2 CLR
01:15 45.5 °F /  7.5 °C 37.8 °F /  3.2 °C 29.8in /  1007.5hPa SSE 2.6mph /  4.2km/h 4mph /  6.4km/h 74% 0in /  0.0mm 0.00 W/m2 CLR
01:20 45.3 °F /  7.4 °C 37.6 °F /  3.1 °C 29.8in /  1007.5hPa SSE 2.1mph /  3.4km/h 3.5mph /  5.6km/h 74% 0in /  0.0mm 0.00 W/m2 CLR
01:25 45 °F /  7.2 °C 37.6 °F /  3.1 °C 29.8in /  1007.5hPa SE 2.4mph /  3.9km/h 3.5mph /  5.6km/h 75% 0in /  0.0mm 0.00 W/m2 CLR
01:30 44.8 °F /  7.1 °C 37.8 °F /  3.2 °C 29.8in /  1007.4hPa SE 2.6mph /  4.2km/h 3.5mph /  5.6km/h 76% 0in /  0.0mm 0.00 W/m2 CLR
01:35 44.8 °F /  7.1 °C 37.6 °F /  3.1 °C 29.8in /  1007.4hPa SSE 2.4mph /  3.9km/h 3.5mph /  5.6km/h 76% 0in /  0.0mm 0.00 W/m2 CLR
01:40 44.4 °F /  6.9 °C 37.4 °F /  3.0 °C 29.8in /  1007.4hPa SE 2.7mph /  4.3km/h 4mph /  6.4km/h 76% 0in /  0.0mm 0.00 W/m2 CLR
01:45 44.4 °F /  6.9 °C 37.6 °F /  3.1 °C 29.8in /  1007.4hPa SE 2.6mph /  4.2km/h 4mph /  6.4km/h 77% 0in /  0.0mm 0.00 W/m2 CLR
01:50 44.2 °F /  6.8 °C 37.4 °F /  3.0 °C 29.7in /  1007.2hPa SSE 3mph /  4.8km/h 3.5mph /  5.6km/h 77% 0in /  0.0mm 0.00 W/m2 CLR
01:55 43.9 °F /  6.6 °C 37 °F /  2.8 °C 29.7in /  1007.1hPa SE 4.2mph /  6.8km/h 5mph /  8.0km/h 77% 0in /  0.0mm 0.00 W/m2 CLR
02:00 43.5 °F /  6.4 °C 37 °F /  2.8 °C 29.7in /  1007.0hPa SSE 2.6mph /  4.2km/h 4.6mph /  7.4km/h 78% 0in /  0.0mm 0.00 W/m2 CLR
02:05 43.3 °F /  6.3 °C 37.2 °F /  2.9 °C 29.7in /  1007.1hPa SE 3.6mph /  5.8km/h 4.6mph /  7.4km/h 79% 0in /  0.0mm 0.00 W/m2 CLR
02:10 43.3 °F /  6.3 °C 37.6 °F /  3.1 °C 29.7in /  1007.0hPa SSE 3mph /  4.8km/h 4mph /  6.4km/h 80% 0in /  0.0mm 0.00 W/m2 CLR
02:15 43.3 °F /  6.3 °C 37.6 °F /  3.1 °C 29.7in /  1007.1hPa SSE 2.4mph /  3.9km/h 4mph /  6.4km/h 80% 0in /  0.0mm 0.00 W/m2 CLR
02:20 43.7 °F /  6.5 °C 37.9 °F /  3.3 °C 29.7in /  1007.0hPa SSE 2.2mph /  3.5km/h 3.5mph /  5.6km/h 80% 0in /  0.0mm 0.00 W/m2 CLR
02:25 44.1 °F /  6.7 °C 37.9 °F /  3.3 °C 29.7in /  1006.9hPa South 2.8mph /  4.5km/h 4mph /  6.4km/h 79% 0in /  0.0mm 0.00 W/m2 CLR
02:30 44.6 °F /  7.0 °C 38.5 °F /  3.6 °C 29.7in /  1007.1hPa SE 3.1mph /  5.0km/h 5mph /  8.0km/h 79% 0in /  0.0mm 0.00 W/m2 CLR
02:35 45.5 °F /  7.5 °C 38.7 °F /  3.7 °C 29.7in /  1007.1hPa SSE 3.3mph /  5.3km/h 4.6mph /  7.4km/h 77% 0in /  0.0mm 0.00 W/m2 CLR
02:40 46.6 °F /  8.1 °C 39.4 °F /  4.1 °C 29.7in /  1007.2hPa SSE 3.3mph /  5.3km/h 5.8mph /  9.3km/h 76% 0in /  0.0mm 0.00 W/m2 CLR
02:45 46.9 °F /  8.3 °C 39 °F /  3.9 °C 29.7in /  1007.3hPa South 3.8mph /  6.1km/h 6.9mph /  11.1km/h 74% 0in /  0.0mm 0.00 W/m2 CLR
02:50 46.9 °F /  8.3 °C 39 °F /  3.9 °C 29.7in /  1007.2hPa SSE 3.7mph /  6.0km/h 4.6mph /  7.4km/h 74% 0in /  0.0mm 0.00 W/m2 CLR
02:55 46.6 °F /  8.1 °C 38.8 °F /  3.8 °C 29.7in /  1007.1hPa SSE 4mph /  6.4km/h 5.8mph /  9.3km/h 74% 0in /  0.0mm 0.00 W/m2 CLR
03:00 46.4 °F /  8.0 °C 38.7 °F /  3.7 °C 29.7in /  1007.2hPa SSE 3.3mph /  5.3km/h 4.6mph /  7.4km/h 74% 0in /  0.0mm 0.00 W/m2 CLR
03:05 46.2 °F /  7.9 °C 38.7 °F /  3.7 °C 29.7in /  1007.2hPa SSE 2.6mph /  4.2km/h 4.6mph /  7.4km/h 75% 0in /  0.0mm 0.00 W/m2 CLR
03:10 46.2 °F /  7.9 °C 38.7 °F /  3.7 °C 29.7in /  1007.1hPa SSE 2.7mph /  4.3km/h 3.5mph /  5.6km/h 75% 0in /  0.0mm 0.00 W/m2 CLR
03:15 46.6 °F /  8.1 °C 39 °F /  3.9 °C 29.7in /  1007.0hPa SSE 3.2mph /  5.1km/h 4mph /  6.4km/h 75% 0in /  0.0mm 0.00 W/m2 CLR
03:20 46.9 °F /  8.3 °C 39 °F /  3.9 °C 29.7in /  1007.0hPa SSE 3.6mph /  5.8km/h 4.6mph /  7.4km/h 74% 0in /  0.0mm 0.00 W/m2 CLR
03:25 47.3 °F /  8.5 °C 39.4 °F /  4.1 °C 29.7in /  1007.0hPa South 2.5mph /  4.0km/h 4.6mph /  7.4km/h 74% 0in /  0.0mm 0.00 W/m2 CLR
03:30 47.5 °F /  8.6 °C 39.6 °F /  4.2 °C 29.7in /  1007.0hPa SSE 2.9mph /  4.7km/h 4.6mph /  7.4km/h 74% 0in /  0.0mm 0.00 W/m2 CLR
03:35 47.3 °F /  8.5 °C 39.4 °F /  4.1 °C 29.7in /  1006.9hPa SE 2.6mph /  4.2km/h 4.6mph /  7.4km/h 74% 0in /  0.0mm 0.00 W/m2 CLR
03:40 47.3 °F /  8.5 °C 39.4 °F /  4.1 °C 29.7in /  1006.9hPa SE 3.2mph /  5.1km/h 4.6mph /  7.4km/h 74% 0in /  0.0mm 0.00 W/m2 CLR
03:45 47.1 °F /  8.4 °C 39.2 °F /  4.0 °C 29.7in /  1006.8hPa SE 2.9mph /  4.7km/h 4mph /  6.4km/h 74% 0in /  0.0mm 0.00 W/m2 CLR
03:50 46.8 °F /  8.2 °C 39.4 °F /  4.1 °C 29.7in /  1006.7hPa SE 3.4mph /  5.5km/h 5mph /  8.0km/h 75% 0in /  0.0mm 0.00 W/m2 CLR
03:55 46.2 °F /  7.9 °C 39 °F /  3.9 °C 29.7in /  1006.7hPa SSE 4.5mph /  7.2km/h 5.8mph /  9.3km/h 76% 0in /  0.0mm 0.00 W/m2 CLR
04:00 46 °F /  7.8 °C 39.6 °F /  4.2 °C 29.7in /  1006.7hPa SE 3.1mph /  5.0km/h 4.6mph /  7.4km/h 78% 0in /  0.0mm 0.00 W/m2 CLR
04:05 46.4 °F /  8.0 °C 39.9 °F /  4.4 °C 29.7in /  1006.6hPa SSE 4.3mph /  6.9km/h 4.6mph /  7.4km/h 78% 0in /  0.0mm 0.00 W/m2 CLR
04:10 46.8 °F /  8.2 °C 40.3 °F /  4.6 °C 29.7in /  1006.5hPa SSE 3.1mph /  5.0km/h 4.6mph /  7.4km/h 78% 0in /  0.0mm 0.00 W/m2 CLR
04:15 46.8 °F /  8.2 °C 39.9 °F /  4.4 °C 29.7in /  1006.6hPa SSE 2.9mph /  4.7km/h 5.8mph /  9.3km/h 77% 0in /  0.0mm 0.00 W/m2 CLR
04:20 46.2 °F /  7.9 °C 39.6 °F /  4.2 °C 29.7in /  1006.5hPa South 3mph /  4.8km/h 3.5mph /  5.6km/h 77% 0in /  0.0mm 0.00 W/m2 CLR
04:25 45.9 °F /  7.7 °C 39.4 °F /  4.1 °C 29.7in /  1006.5hPa South 3.3mph /  5.3km/h 4.6mph /  7.4km/h 78% 0in /  0.0mm 0.00 W/m2 CLR
04:30 45.7 °F /  7.6 °C 39.6 °F /  4.2 °C 29.7in /  1006.5hPa SSE 3.5mph /  5.6km/h 4.6mph /  7.4km/h 79% 0in /  0.0mm 0.00 W/m2 CLR
04:35 45.5 °F /  7.5 °C 39.4 °F /  4.1 °C 29.7in /  1006.5hPa South 3.7mph /  6.0km/h 5.8mph /  9.3km/h 79% 0in /  0.0mm 0.00 W/m2 CLR
04:40 45.3 °F /  7.4 °C 39.6 °F /  4.2 °C 29.7in /  1006.5hPa South 3.6mph /  5.8km/h 5.8mph /  9.3km/h 80% 0in /  0.0mm 0.00 W/m2 CLR
04:45 45.3 °F /  7.4 °C 39.9 °F /  4.4 °C 29.7in /  1006.5hPa SSW 3mph /  4.8km/h 5.8mph /  9.3km/h 81% 0in /  0.0mm 0.00 W/m2 CLR
04:50 46.6 °F /  8.1 °C 40.6 °F /  4.8 °C 29.7in /  1006.4hPa SE 4.2mph /  6.8km/h 6.9mph /  11.1km/h 80% 0in /  0.0mm 0.00 W/m2 CLR
04:55 47.1 °F /  8.4 °C 41 °F /  5.0 °C 29.7in /  1006.5hPa SSW 6.7mph /  10.8km/h 9.2mph /  14.8km/h 79% 0in /  0.0mm 0.00 W/m2 CLR
05:00 47.5 °F /  8.6 °C 41 °F /  5.0 °C 29.7in /  1006.5hPa South 6mph /  9.7km/h 10.4mph /  16.7km/h 78% 0in /  0.0mm 0.00 W/m2 CLR
05:05 47.7 °F /  8.7 °C 41.4 °F /  5.2 °C 29.7in /  1006.6hPa SSE 7mph /  11.3km/h 10.4mph /  16.7km/h 79% 0in /  0.0mm 0.00 W/m2 CLR
05:10 47.7 °F /  8.7 °C 41.5 °F /  5.3 °C 29.7in /  1006.6hPa SSE 4.2mph /  6.8km/h 6mph /  9.7km/h 79% 0in /  0.0mm 0.00 W/m2 CLR
05:15 48 °F /  8.9 °C 41.7 °F /  5.4 °C 29.7in /  1006.5hPa South 5.4mph /  8.7km/h 10.4mph /  16.7km/h 79% 0in /  0.0mm 0.00 W/m2 CLR
05:20 48.2 °F /  9.0 °C 42.1 °F /  5.6 °C 29.7in /  1006.4hPa SSE 5.9mph /  9.5km/h 9.2mph /  14.8km/h 79% 0in /  0.0mm 0.00 W/m2 CLR
05:25 48.6 °F /  9.2 °C 42.3 °F /  5.7 °C 29.7in /  1006.4hPa South 6.1mph /  9.8km/h 9.2mph /  14.8km/h 79% 0in /  0.0mm 0.00 W/m2 CLR
05:30 48.9 °F /  9.4 °C 42.3 °F /  5.7 °C 29.7in /  1006.5hPa SSE 5.7mph /  9.2km/h 11.5mph /  18.5km/h 78% 0in /  0.0mm 0.00 W/m2 CLR
05:35 49.1 °F /  9.5 °C 42.4 °F /  5.8 °C 29.7in /  1006.5hPa South 4.9mph /  7.9km/h 7mph /  11.3km/h 78% 0in /  0.0mm 0.00 W/m2 CLR
05:40 49.3 °F /  9.6 °C 42.6 °F /  5.9 °C 29.7in /  1006.4hPa South 5.3mph /  8.5km/h 8.1mph /  13.0km/h 78% 0in /  0.0mm 0.00 W/m2 CLR
05:45 49.3 °F /  9.6 °C 42.6 °F /  5.9 °C 29.7in /  1006.4hPa SSE 5.5mph /  8.8km/h 8.1mph /  13.0km/h 78% 0in /  0.0mm 0.00 W/m2 CLR
05:50 49.5 °F /  9.7 °C 42.8 °F /  6.0 °C 29.7in /  1006.2hPa South 5.5mph /  8.8km/h 10.4mph /  16.7km/h 78% 0in /  0.0mm 0.00 W/m2 CLR
05:55 49.6 °F /  9.8 °C 42.6 °F /  5.9 °C 29.7in /  1006.1hPa SSE 5.4mph /  8.7km/h 8.1mph /  13.0km/h 77% 0in /  0.0mm 0.00 W/m2 CLR
06:00 49.6 °F /  9.8 °C 42.6 °F /  5.9 °C 29.7in /  1006.1hPa SSE 5.1mph /  8.2km/h 8.1mph /  13.0km/h 77% 0in /  0.0mm 0.00 W/m2 CLR
06:05 49.5 °F /  9.7 °C 42.8 °F /  6.0 °C 29.7in /  1006.1hPa South 4mph /  6.4km/h 8mph /  12.9km/h 78% 0in /  0.0mm 0.00 W/m2 CLR
06:10 49.3 °F /  9.6 °C 42.6 °F /  5.9 °C 29.7in /  1006.2hPa SSE 5.1mph /  8.2km/h 8.1mph /  13.0km/h 78% 0in /  0.0mm 0.00 W/m2 CLR
06:15 49.3 °F /  9.6 °C 43 °F /  6.1 °C 29.7in /  1006.2hPa SE 5.3mph /  8.5km/h 8.1mph /  13.0km/h 79% 0in /  0.0mm 0.00 W/m2 CLR
06:20 49.3 °F /  9.6 °C 43.2 °F /  6.2 °C 29.7in /  1006.2hPa SE 6.4mph /  10.3km/h 8.1mph /  13.0km/h 79% 0in /  0.0mm 0.00 W/m2 CLR
06:25 49.1 °F /  9.5 °C 43 °F /  6.1 °C 29.7in /  1006.1hPa SSE 5.3mph /  8.5km/h 8.1mph /  13.0km/h 79% 0in /  0.0mm 0.00 W/m2 CLR
06:30 48.7 °F /  9.3 °C 42.6 °F /  5.9 °C 29.7in /  1006.1hPa South 5mph /  8.0km/h 8.1mph /  13.0km/h 79% 0in /  0.0mm 0.00 W/m2 CLR
06:35 48.7 °F /  9.3 °C 42.6 °F /  5.9 °C 29.7in /  1006.1hPa SE 5.1mph /  8.2km/h 8.1mph /  13.0km/h 79% 0in /  0.0mm 0.00 W/m2 CLR
06:40 48.7 °F /  9.3 °C 42.6 °F /  5.9 °C 29.7in /  1006.0hPa SSE 5.5mph /  8.8km/h 9.2mph /  14.8km/h 79% 0in /  0.0mm 0.00 W/m2 CLR
06:45 48.7 °F /  9.3 °C 42.6 °F /  5.9 °C 29.7in /  1005.8hPa SSE 5.1mph /  8.2km/h 9.2mph /  14.8km/h 79% 0in /  0.0mm 0.00 W/m2 CLR
06:50 48.6 °F /  9.2 °C 42.6 °F /  5.9 °C 29.7in /  1005.7hPa South 4.8mph /  7.7km/h 6.9mph /  11.1km/h 80% 0in /  0.0mm 0.00 W/m2 CLR
06:55 48.4 °F /  9.1 °C 42.4 °F /  5.8 °C 29.7in /  1005.6hPa SE 5.6mph /  9.0km/h 9.2mph /  14.8km/h 80% 0in /  0.0mm 0.00 W/m2 CLR
07:00 47.8 °F /  8.8 °C 42.3 °F /  5.7 °C 29.7in /  1005.6hPa SE 5mph /  8.0km/h 8.1mph /  13.0km/h 81% 0in /  0.0mm 0.00 W/m2 CLR
07:05 47.7 °F /  8.7 °C 42.1 °F /  5.6 °C 29.7in /  1005.7hPa ESE 6.4mph /  10.3km/h 9.2mph /  14.8km/h 81% 0in /  0.0mm 0.00 W/m2 CLR
07:10 47.3 °F /  8.5 °C 42.1 °F /  5.6 °C 29.7in /  1005.6hPa SSE 5.6mph /  9.0km/h 10.4mph /  16.7km/h 82% 0in /  0.0mm 0.00 W/m2 CLR
07:15 47.1 °F /  8.4 °C 42.3 °F /  5.7 °C 29.7in /  1005.7hPa SE 5.7mph /  9.2km/h 10.4mph /  16.7km/h 83% 0in /  0.0mm 0.00 W/m2 OVC
07:20 46.9 °F /  8.3 °C 42.1 °F /  5.6 °C 29.7in /  1005.5hPa SE 5.9mph /  9.5km/h 12mph /  19.3km/h 83% 0in /  0.0mm 0.00 W/m2 OVC
07:25 46.8 °F /  8.2 °C 42.1 °F /  5.6 °C 29.7in /  1005.4hPa SE 5.3mph /  8.5km/h 9.2mph /  14.8km/h 84% 0in /  0.0mm 0.00 W/m2 OVC
07:30 46.6 °F /  8.1 °C 41.9 °F /  5.5 °C 29.7in /  1005.3hPa SSE 5.4mph /  8.7km/h 9.2mph /  14.8km/h 84% 0in /  0.0mm 0.00 W/m2 OVC
07:35 46.2 °F /  7.9 °C 41.9 °F /  5.5 °C 29.7in /  1005.3hPa SE 6mph /  9.7km/h 10.4mph /  16.7km/h 85% 0in /  0.0mm 0.00 W/m2 OVC
07:40 46 °F /  7.8 °C 41.7 °F /  5.4 °C 29.7in /  1005.2hPa SE 6.3mph /  10.1km/h 8.1mph /  13.0km/h 85% 0in /  0.0mm 5.00 W/m2 OVC
07:45 46 °F /  7.8 °C 42.1 °F /  5.6 °C 29.7in /  1005.2hPa ESE 4.8mph /  7.7km/h 8.1mph /  13.0km/h 86% 0in /  0.0mm 5.00 W/m2 OVC
07:50 45.9 °F /  7.7 °C 41.9 °F /  5.5 °C 29.7in /  1005.2hPa SE 5.9mph /  9.5km/h 9.2mph /  14.8km/h 86% 0in /  0.0mm 7.00 W/m2 CLR
07:55 45.9 °F /  7.7 °C 42.3 °F /  5.7 °C 29.7in /  1005.2hPa SSE 5.8mph /  9.3km/h 12.7mph /  20.4km/h 87% 0in /  0.0mm 11.00 W/m2 SCT
08:00 46 °F /  7.8 °C 42.6 °F /  5.9 °C 29.7in /  1005.2hPa SE 6.2mph /  10.0km/h 13.8mph /  22.2km/h 88% 0in /  0.0mm 14.00 W/m2 SCT
08:05 46.6 °F /  8.1 °C 43.2 °F /  6.2 °C 29.7in /  1005.1hPa SSE 6.3mph /  10.1km/h 12mph /  19.3km/h 88% 0in /  0.0mm 16.00 W/m2 BKN
08:10 46.9 °F /  8.3 °C 43.5 °F /  6.4 °C 29.7in /  1005.1hPa SSE 5.9mph /  9.5km/h 11.5mph /  18.5km/h 88% 0in /  0.0mm 14.00 W/m2 BKN
08:15 47.3 °F /  8.5 °C 44.2 °F /  6.8 °C 29.7in /  1005.3hPa South 6.9mph /  11.1km/h 12.7mph /  20.4km/h 89% 0in /  0.0mm 18.00 W/m2 BKN
08:20 47.8 °F /  8.8 °C 44.8 °F /  7.1 °C 29.7in /  1005.3hPa SE 9.1mph /  14.6km/h 13.8mph /  22.2km/h 89% 0in /  0.0mm 19.00 W/m2 BKN
08:25 48.2 °F /  9.0 °C 45.1 °F /  7.3 °C 29.7in /  1005.1hPa SSE 8.6mph /  13.8km/h 16.1mph /  25.9km/h 89% 0in /  0.0mm 19.00 W/m2 BKN
08:30 48.6 °F /  9.2 °C 45.3 °F /  7.4 °C 29.7in /  1004.9hPa SE 8.5mph /  13.7km/h 15mph /  24.1km/h 89% 0in /  0.0mm 25.00 W/m2 BKN
08:35 48.7 °F /  9.3 °C 45.7 °F /  7.6 °C 29.7in /  1005.0hPa ESE 9.6mph /  15.4km/h 12.7mph /  20.4km/h 89% 0in /  0.0mm 28.00 W/m2 BKN
08:40 48.9 °F /  9.4 °C 45.9 °F /  7.7 °C 29.7in /  1005.0hPa ESE 8.5mph /  13.7km/h 13.8mph /  22.2km/h 89% 0in /  0.0mm 32.00 W/m2 BKN
08:45 49.3 °F /  9.6 °C 46.2 °F /  7.9 °C 29.7in /  1004.9hPa SE 7.7mph /  12.4km/h 11.5mph /  18.5km/h 89% 0in /  0.0mm 42.00 W/m2 BKN
08:50 49.6 °F /  9.8 °C 46.8 °F /  8.2 °C 29.7in /  1004.8hPa SE 8mph /  12.9km/h 12mph /  19.3km/h 90% 0in /  0.0mm 42.00 W/m2 BKN
08:55 49.8 °F /  9.9 °C 46.9 °F /  8.3 °C 29.7in /  1004.7hPa ESE 13.1mph /  21.1km/h 19.6mph /  31.5km/h 90% 0in /  0.0mm 44.00 W/m2 BKN
09:00 50.2 °F /  10.1 °C 46.9 °F /  8.3 °C 29.7in /  1004.9hPa SSW 6.9mph /  11.1km/h 13.8mph /  22.2km/h 89% 0in /  0.0mm 53.00 W/m2 BKN
09:05 50.4 °F /  10.2 °C 47.5 °F /  8.6 °C 29.7in /  1005.0hPa SSE 8.1mph /  13.0km/h 12mph /  19.3km/h 90% 0in /  0.0mm 54.00 W/m2 BKN
09:10 50.5 °F /  10.3 °C 47.5 °F /  8.6 °C 29.7in /  1005.0hPa SE 6.2mph /  10.0km/h 10.4mph /  16.7km/h 89% 0in /  0.0mm 56.00 W/m2 BKN
09:15 50.9 °F /  10.5 °C 47.8 °F /  8.8 °C 29.7in /  1005.2hPa SE 5.5mph /  8.8km/h 10.4mph /  16.7km/h 89% 0in /  0.0mm 65.00 W/m2 BKN
09:20 51.1 °F /  10.6 °C 48 °F /  8.9 °C 29.7in /  1005.1hPa SE 6.7mph /  10.8km/h 10.4mph /  16.7km/h 89% 0in /  0.0mm 67.00 W/m2 BKN
09:25 51.4 °F /  10.8 °C 48 °F /  8.9 °C 29.7in /  1005.0hPa SE 7mph /  11.3km/h 10.4mph /  16.7km/h 88% 0in /  0.0mm 81.00 W/m2 BKN
09:30 51.6 °F /  10.9 °C 48.4 °F /  9.1 °C 29.7in /  1005.0hPa SSE 7.4mph /  11.9km/h 11.5mph /  18.5km/h 88% 0in /  0.0mm 97.00 W/m2 BKN
09:35 52.2 °F /  11.2 °C 48.7 °F /  9.3 °C 29.7in /  1005.0hPa SSE 9.4mph /  15.1km/h 13.8mph /  22.2km/h 88% 0in /  0.0mm 132.00 W/m2 BKN
09:40 52.5 °F /  11.4 °C 48.7 °F /  9.3 °C 29.7in /  1004.8hPa ESE 7.7mph /  12.4km/h 11.5mph /  18.5km/h 87% 0in /  0.0mm 158.00 W/m2 SCT
09:45 53.1 °F /  11.7 °C 48.9 °F /  9.4 °C 29.7in /  1004.8hPa SE 7.2mph /  11.6km/h 11.5mph /  18.5km/h 86% 0in /  0.0mm 193.00 W/m2 SCT
09:50 53.4 °F /  11.9 °C 49.1 °F /  9.5 °C 29.7in /  1004.7hPa SSE 10.3mph /  16.6km/h 16.1mph /  25.9km/h 85% 0in /  0.0mm 134.00 W/m2 SCT
09:55 53.8 °F /  12.1 °C 49.5 °F /  9.7 °C 29.7in /  1004.4hPa ESE 11.4mph /  18.3km/h 16.1mph /  25.9km/h 85% 0in /  0.0mm 134.00 W/m2 SCT
10:00 54.1 °F /  12.3 °C 49.8 °F /  9.9 °C 29.7in /  1004.4hPa SE 8.3mph /  13.4km/h 16mph /  25.7km/h 85% 0in /  0.0mm 359.00 W/m2 SCT
10:05 55 °F /  12.8 °C 50.4 °F /  10.2 °C 29.7in /  1004.2hPa SE 12.2mph /  19.6km/h 20.7mph /  33.3km/h 84% 0in /  0.0mm 292.00 W/m2 CLR
10:10 55.6 °F /  13.1 °C 50.4 °F /  10.2 °C 29.7in /  1004.2hPa South 11.1mph /  17.9km/h 18.4mph /  29.6km/h 83% 0in /  0.0mm 197.00 W/m2 CLR
Friend Weather